Corcovado, Argentina
Current Conditions -  °F | °C
As of 3:00 AM on Sunday 23 Nov 2014 (Local Time) from SCAP Reporting Station
Clear Clear  
Wind Chill: 48°   Ceiling: Unl
Heat Index: 48°   Visibility: NA
Dew Point: 46°   Wind: 1mph
Humidity: 93%   Direction: NA
Pressure: 29.85"   Gusts: NA
Location:  43.46°S, 71.09°W
Report Text: SCAP 230600Z AUTO VRB01KT //// // NSC 09/08 Q1011
Loading
Personal Weather Stations






























Interactive Weather Map New forecast layout! Learn more

10-Day Weather Forecast

Advertisements
Track Severe Weather on mobile